createdAt,value
2022-12-22T00:02:44.092Z,20.33
2022-12-22T00:05:34.218Z,25.15
2022-12-22T00:08:19.759Z,23.25
2022-12-22T00:11:07.244Z,22.95
2022-12-22T00:13:53.186Z,22.95
2022-12-22T00:16:38.898Z,23.20
2022-12-22T00:19:31.442Z,20.25
2022-12-22T00:22:19.622Z,23.52
2022-12-22T00:25:04.942Z,21.52
2022-12-22T00:27:51.950Z,23.20
2022-12-22T00:30:38.016Z,23.17
2022-12-22T00:33:24.174Z,21.13
2022-12-22T00:36:09.920Z,21.23
2022-12-22T00:38:55.525Z,25.15
2022-12-22T00:41:40.804Z,25.42
2022-12-22T00:44:27.831Z,23.35
2022-12-22T00:47:13.516Z,27.13
2022-12-22T00:50:02.860Z,25.30
2022-12-22T00:52:48.208Z,23.50
2022-12-22T00:55:35.329Z,27.38
2022-12-22T00:58:22.456Z,28.85
2022-12-22T01:01:09.247Z,27.13
2022-12-22T01:03:54.748Z,23.00
2022-12-22T01:06:40.174Z,24.13
2022-12-22T01:09:28.410Z,23.20
2022-12-22T01:12:13.915Z,26.05
2022-12-22T01:14:59.283Z,21.58
2022-12-22T01:17:45.940Z,25.27
2022-12-22T01:20:31.172Z,29.98
2022-12-22T01:23:16.470Z,27.65
2022-12-22T01:26:01.762Z,31.30
2022-12-22T01:28:47.046Z,25.80
2022-12-22T01:31:37.191Z,31.65
2022-12-22T01:34:23.905Z,31.23
2022-12-22T01:37:09.315Z,37.13
2022-12-22T01:39:54.686Z,29.77
2022-12-22T01:42:39.997Z,25.55
2022-12-22T01:45:39.529Z,28.35
2022-12-22T01:48:29.588Z,26.88
2022-12-22T01:51:18.274Z,28.48
2022-12-22T01:54:04.094Z,29.02
2022-12-22T01:56:50.691Z,29.55
2022-12-22T01:59:36.387Z,27.85
2022-12-22T02:02:24.924Z,23.40
2022-12-22T02:05:11.225Z,24.92
2022-12-22T02:08:14.755Z,27.98
2022-12-22T02:11:18.217Z,25.92
2022-12-22T02:14:13.565Z,25.88
2022-12-22T02:17:08.472Z,23.85
2022-12-22T02:20:09.397Z,27.30
2022-12-22T02:23:05.528Z,25.52
2022-12-22T02:25:58.630Z,27.02
2022-12-22T02:28:45.550Z,22.40
2022-12-22T02:31:31.772Z,25.75
2022-12-22T02:34:17.330Z,23.50
2022-12-22T02:37:12.746Z,21.83
2022-12-22T02:40:10.677Z,27.48
2022-12-22T02:43:05.555Z,27.77
2022-12-22T02:45:59.971Z,26.30
2022-12-22T02:48:51.334Z,28.40
2022-12-22T02:51:41.747Z,24.77
2022-12-22T02:54:28.107Z,27.08
2022-12-22T02:57:13.929Z,25.23
2022-12-22T02:59:59.189Z,26.15
2022-12-22T03:02:46.124Z,25.50
2022-12-22T03:05:31.807Z,24.02
2022-12-22T03:08:17.118Z,26.08
2022-12-22T03:11:02.315Z,30.25
2022-12-22T03:13:47.447Z,29.25
2022-12-22T03:16:33.151Z,22.45
2022-12-22T03:19:20.133Z,27.85
2022-12-22T03:22:05.424Z,24.70
2022-12-22T03:24:50.692Z,25.20
2022-12-22T03:27:18.607Z,26.25
2022-12-22T03:29:46.475Z,26.55
2022-12-22T03:32:14.398Z,24.92
2022-12-22T03:34:43.620Z,26.80
2022-12-22T03:37:11.504Z,25.25
2022-12-22T03:39:39.425Z,24.38
2022-12-22T03:42:25.042Z,27.52
2022-12-22T03:45:10.368Z,25.92
2022-12-22T03:47:38.251Z,28.42
2022-12-22T03:50:08.536Z,26.52
2022-12-22T03:52:36.384Z,24.23
2022-12-22T03:55:04.563Z,30.05
2022-12-22T03:57:32.411Z,29.40
2022-12-22T04:00:00.289Z,27.55
2022-12-22T04:02:28.285Z,27.95
2022-12-22T04:04:56.177Z,31.80
2022-12-22T04:07:25.381Z,30.55
2022-12-22T04:10:11.047Z,32.25
2022-12-22T04:12:56.903Z,34.97
2022-12-22T04:15:28.777Z,27.50
2022-12-22T04:17:57.535Z,27.88
2022-12-22T04:20:27.786Z,29.75
2022-12-22T04:22:57.868Z,28.20
2022-12-22T04:25:26.694Z,32.92
2022-12-22T04:27:54.589Z,32.58
2022-12-22T04:30:22.541Z,29.92
2022-12-22T04:32:50.383Z,25.05
2022-12-22T04:35:18.373Z,30.52
2022-12-22T04:37:46.318Z,28.85
2022-12-22T04:40:15.684Z,29.77
2022-12-22T04:42:43.624Z,27.23
2022-12-22T04:45:12.405Z,28.95
2022-12-22T04:47:40.355Z,26.80
2022-12-22T04:50:09.396Z,28.52
2022-12-22T04:52:37.243Z,30.45
2022-12-22T04:55:06.594Z,28.85
2022-12-22T04:57:40.452Z,26.38
2022-12-22T05:00:10.766Z,26.58
2022-12-22T05:02:38.763Z,26.00
2022-12-22T05:05:07.640Z,25.60
2022-12-22T05:07:35.640Z,26.02
2022-12-22T05:10:04.109Z,27.02
2022-12-22T05:12:49.690Z,28.27
2022-12-22T05:15:19.127Z,26.58
2022-12-22T05:17:47.027Z,27.23
2022-12-22T05:20:14.962Z,33.90
2022-12-22T05:22:42.858Z,24.83
2022-12-22T05:25:11.440Z,29.45
2022-12-22T05:27:39.737Z,26.73
2022-12-22T05:30:08.908Z,28.33
2022-12-22T05:32:38.175Z,29.17
2022-12-22T05:35:07.851Z,29.35
2022-12-22T05:37:36.326Z,27.67
2022-12-22T05:40:05.160Z,27.52
2022-12-22T05:42:39.547Z,34.40
2022-12-22T05:45:15.081Z,31.73
2022-12-22T05:47:44.858Z,28.90
2022-12-22T05:50:14.653Z,31.63
2022-12-22T05:52:42.772Z,36.20
2022-12-22T05:55:11.317Z,37.72
2022-12-22T05:57:39.418Z,33.15
2022-12-22T06:00:09.640Z,36.72
2022-12-22T06:02:37.601Z,38.60
2022-12-22T06:05:08.155Z,36.50
2022-12-22T06:07:36.081Z,36.75
2022-12-22T06:10:09.748Z,37.60
2022-12-22T06:12:40.578Z,30.45
2022-12-22T06:15:10.111Z,32.25
2022-12-22T06:17:43.952Z,39.85
2022-12-22T06:20:15.484Z,29.85
2022-12-22T06:22:43.888Z,32.40
2022-12-22T06:25:17.538Z,32.72
2022-12-22T06:27:46.601Z,31.00
2022-12-22T06:30:15.459Z,36.30
2022-12-22T06:32:43.740Z,28.42
2022-12-22T06:35:12.016Z,32.70
2022-12-22T06:37:41.406Z,29.25
2022-12-22T06:40:10.660Z,30.10
2022-12-22T06:42:58.523Z,31.75
2022-12-22T06:45:28.725Z,31.98
2022-12-22T06:47:56.689Z,34.40
2022-12-22T06:50:24.550Z,29.50
2022-12-22T06:52:54.348Z,28.58
2022-12-22T06:55:22.260Z,31.52
2022-12-22T06:57:50.219Z,29.52
2022-12-22T07:00:18.876Z,31.65
2022-12-22T07:02:46.981Z,31.42
2022-12-22T07:05:15.643Z,33.25
2022-12-22T07:07:43.898Z,31.52
2022-12-22T07:10:13.898Z,32.25
2022-12-22T07:12:42.091Z,32.47
2022-12-22T07:15:11.327Z,34.22
2022-12-22T07:17:41.575Z,30.77
2022-12-22T07:20:10.607Z,42.42
2022-12-22T07:22:38.468Z,39.95
2022-12-22T07:25:08.050Z,40.88
2022-12-22T07:27:37.281Z,48.95
2022-12-22T07:30:05.843Z,47.95
2022-12-22T07:32:33.747Z,48.30
2022-12-22T07:35:05.574Z,49.38
2022-12-22T07:37:33.965Z,54.85
2022-12-22T07:40:01.878Z,59.00
2022-12-22T07:42:46.722Z,59.47
2022-12-22T07:45:17.351Z,46.60
2022-12-22T07:47:45.853Z,61.22
2022-12-22T07:50:28.160Z,55.90
2022-12-22T07:52:57.212Z,51.10
2022-12-22T07:55:27.248Z,57.78
2022-12-22T07:57:56.027Z,49.95
2022-12-22T08:00:25.907Z,59.33
2022-12-22T08:02:55.407Z,51.33
2022-12-22T08:05:25.012Z,54.85
2022-12-22T08:07:53.761Z,52.20
2022-12-22T08:10:22.073Z,63.00
2022-12-22T08:12:49.963Z,57.38
2022-12-22T08:15:17.957Z,54.25
2022-12-22T08:17:47.170Z,50.78
2022-12-22T08:20:15.149Z,49.60
2022-12-22T08:22:43.098Z,55.33
2022-12-22T08:25:10.990Z,49.30
2022-12-22T08:27:44.799Z,56.85
2022-12-22T08:30:14.020Z,55.92
2022-12-22T08:32:42.888Z,62.05
2022-12-22T08:35:12.308Z,55.10
2022-12-22T08:37:44.775Z,54.15
2022-12-22T08:40:15.646Z,49.58
2022-12-22T08:42:43.727Z,58.53
2022-12-22T08:45:12.487Z,57.58
2022-12-22T08:47:40.360Z,61.15
2022-12-22T08:50:09.567Z,54.35
2022-12-22T08:52:38.764Z,57.35
2022-12-22T08:55:07.998Z,61.38
2022-12-22T08:57:36.155Z,50.10
2022-12-22T09:00:05.353Z,51.03
2022-12-22T09:02:33.402Z,48.72
2022-12-22T09:05:01.534Z,50.88
2022-12-22T09:07:29.950Z,46.80
2022-12-22T09:09:59.164Z,46.72
2022-12-22T09:12:27.094Z,43.65
2022-12-22T09:14:55.018Z,41.58
2022-12-22T09:17:23.376Z,48.45
2022-12-22T09:19:51.310Z,43.13
2022-12-22T09:22:25.102Z,47.58
2022-12-22T09:24:56.198Z,40.67
2022-12-22T09:27:25.476Z,43.90
2022-12-22T09:29:53.416Z,49.08
2022-12-22T09:32:21.601Z,45.05
2022-12-22T09:34:49.933Z,48.05
2022-12-22T09:37:18.140Z,49.25
2022-12-22T09:39:47.247Z,49.50
2022-12-22T09:42:19.210Z,47.63
2022-12-22T09:44:51.959Z,45.67
2022-12-22T09:47:24.527Z,48.97
2022-12-22T09:49:54.762Z,41.67
2022-12-22T09:52:26.268Z,40.95
2022-12-22T09:54:54.145Z,37.08
2022-12-22T09:57:24.857Z,37.47
2022-12-22T09:59:54.582Z,37.05
2022-12-22T10:02:29.795Z,31.17
2022-12-22T10:05:07.360Z,38.17
2022-12-22T10:07:38.480Z,34.30
2022-12-22T10:10:08.484Z,34.00
2022-12-22T10:12:36.339Z,39.58
2022-12-22T10:15:06.360Z,30.13
2022-12-22T10:17:35.615Z,32.35
2022-12-22T10:20:21.335Z,32.22
2022-12-22T10:22:52.154Z,27.92
2022-12-22T10:25:52.240Z,27.67
2022-12-22T10:28:23.750Z,30.75
2022-12-22T10:31:12.474Z,32.33
2022-12-22T10:33:46.127Z,28.10
2022-12-22T10:38:57.387Z,21.92
2022-12-22T10:41:28.354Z,27.05
2022-12-22T10:43:58.394Z,26.15
2022-12-22T10:46:37.391Z,22.55
2022-12-22T10:49:16.403Z,23.63
2022-12-22T10:51:47.735Z,18.77
2022-12-22T10:54:26.934Z,25.38
2022-12-22T10:57:06.909Z,30.27
2022-12-22T10:59:35.602Z,27.58
2022-12-22T11:02:27.440Z,24.65
2022-12-22T11:05:01.425Z,26.88
2022-12-22T11:07:31.351Z,23.73
2022-12-22T11:09:59.537Z,21.25
2022-12-22T11:12:35.617Z,27.80
2022-12-22T11:15:11.801Z,26.50
2022-12-22T11:17:51.044Z,25.20
2022-12-22T11:20:42.097Z,27.60
2022-12-22T11:23:17.312Z,41.03
2022-12-22T11:25:56.490Z,32.63
2022-12-22T11:28:40.680Z,34.03
2022-12-22T11:31:24.453Z,38.70
2022-12-22T11:34:06.308Z,38.70
2022-12-22T11:36:46.470Z,52.47
2022-12-22T11:39:17.266Z,48.00
2022-12-22T11:42:04.756Z,48.50
2022-12-22T11:44:42.085Z,47.90
2022-12-22T11:47:21.359Z,51.50
2022-12-22T11:50:59.174Z,45.67
2022-12-22T11:53:43.764Z,55.65
2022-12-22T11:56:22.827Z,46.58
2022-12-22T11:59:10.432Z,47.78
2022-12-22T12:01:56.464Z,47.67
2022-12-22T12:04:39.136Z,45.97
2022-12-22T12:07:25.963Z,49.90
2022-12-22T12:10:04.005Z,38.13
2022-12-22T12:12:44.711Z,32.58
2022-12-22T12:15:25.507Z,27.17
2022-12-22T12:18:18.067Z,29.92
2022-12-22T12:20:59.251Z,23.38
2022-12-22T12:23:47.833Z,21.17
2022-12-22T12:26:21.037Z,19.52
2022-12-22T12:28:56.908Z,18.30
2022-12-22T12:31:31.405Z,25.75
2022-12-22T12:34:02.999Z,26.95
2022-12-22T12:36:40.100Z,22.25
2022-12-22T12:39:17.012Z,21.50
2022-12-22T12:41:54.434Z,21.42
2022-12-22T12:44:26.768Z,23.58
2022-12-22T12:47:06.043Z,19.85
2022-12-22T12:49:53.918Z,18.35
2022-12-22T12:53:15.653Z,27.95
2022-12-22T12:56:03.908Z,23.05
2022-12-22T12:58:50.629Z,22.23
2022-12-22T13:01:57.671Z,20.90
2022-12-22T13:05:14.789Z,22.70
2022-12-22T13:08:16.971Z,26.85
2022-12-22T13:10:48.617Z,21.92
2022-12-22T13:13:58.836Z,24.70
2022-12-22T13:16:35.059Z,22.98
2022-12-22T13:19:18.119Z,21.63
2022-12-22T13:21:55.333Z,24.47
2022-12-22T13:27:16.236Z,24.92
2022-12-22T13:29:47.823Z,23.80
2022-12-22T13:30:51.211Z,22.25
2022-12-22T13:32:23.590Z,25.40
2022-12-22T13:37:49.792Z,28.33
2022-12-22T13:40:20.801Z,29.30
2022-12-22T13:42:51.495Z,33.13
2022-12-22T13:45:27.079Z,34.25
2022-12-22T13:47:56.934Z,30.30
2022-12-22T13:50:28.845Z,31.63
2022-12-22T13:52:58.893Z,36.38
2022-12-22T13:55:30.696Z,34.65
2022-12-22T13:58:04.387Z,35.67
2022-12-22T14:00:32.531Z,35.90
2022-12-22T14:03:02.122Z,40.45
2022-12-22T14:05:34.289Z,40.80
2022-12-22T14:08:04.040Z,43.33
2022-12-22T14:10:38.506Z,38.58
2022-12-22T14:13:12.468Z,46.78
2022-12-22T14:15:40.454Z,39.53
2022-12-22T14:18:15.660Z,33.45
2022-12-22T14:20:45.061Z,38.28
2022-12-22T14:23:19.376Z,40.83
2022-12-22T14:25:48.092Z,36.88
2022-12-22T14:28:21.139Z,41.83
2022-12-22T14:30:51.805Z,42.88
2022-12-22T14:33:30.020Z,45.58
2022-12-22T14:36:17.033Z,40.28
2022-12-22T14:38:47.272Z,44.25
2022-12-22T14:41:35.856Z,42.67
2022-12-22T14:44:04.267Z,35.35
2022-12-22T14:46:38.581Z,44.10
2022-12-22T14:49:15.258Z,39.47
2022-12-22T14:51:43.473Z,46.33
2022-12-22T14:54:21.081Z,46.90
2022-12-22T14:56:51.630Z,37.10
2022-12-22T14:59:27.109Z,43.78
2022-12-22T15:02:00.008Z,45.72
2022-12-22T15:04:30.405Z,40.58
2022-12-22T15:07:53.776Z,41.50
2022-12-22T15:10:14.979Z,43.45
2022-12-22T15:12:46.611Z,42.35
2022-12-22T15:15:17.937Z,45.67
2022-12-22T15:17:48.371Z,42.88
2022-12-22T15:20:22.990Z,47.30
2022-12-22T15:22:51.367Z,45.05
2022-12-22T15:25:21.532Z,44.53
2022-12-22T15:27:50.472Z,47.75
2022-12-22T15:30:26.624Z,40.75
2022-12-22T15:32:56.368Z,42.67
2022-12-22T15:35:30.378Z,41.22
2022-12-22T15:38:00.220Z,40.85
2022-12-22T15:40:29.389Z,40.67
2022-12-22T15:42:57.311Z,48.03
2022-12-22T15:45:25.282Z,54.72
2022-12-22T15:47:55.633Z,51.17
2022-12-22T15:50:29.306Z,53.22
2022-12-22T15:53:00.675Z,56.70
2022-12-22T15:55:28.875Z,53.75
2022-12-22T15:58:00.052Z,52.80
2022-12-22T16:00:27.957Z,57.92
2022-12-22T16:02:57.099Z,52.22
2022-12-22T16:05:26.472Z,53.30
2022-12-22T16:07:54.445Z,63.03
2022-12-22T16:10:25.594Z,72.63
2022-12-22T16:13:00.333Z,70.50
2022-12-22T16:15:30.660Z,63.63
2022-12-22T16:17:58.912Z,53.63
2022-12-22T16:20:35.772Z,52.55
2022-12-22T16:23:06.741Z,54.40
2022-12-22T16:25:37.394Z,47.38
2022-12-22T16:28:06.938Z,40.65
2022-12-22T16:30:35.820Z,45.45
2022-12-22T16:33:03.708Z,44.13
2022-12-22T16:35:33.695Z,45.25
2022-12-22T16:38:01.602Z,38.78
2022-12-22T16:40:29.921Z,39.22
2022-12-22T16:45:49.370Z,40.90
2022-12-22T16:48:21.870Z,41.78
2022-12-22T16:50:51.137Z,42.65
2022-12-22T16:53:19.028Z,42.97
2022-12-22T16:55:46.881Z,41.40
2022-12-22T16:58:14.786Z,43.38
2022-12-22T17:00:44.774Z,43.35
2022-12-22T17:03:16.930Z,42.17
2022-12-22T17:05:47.459Z,36.83
2022-12-22T17:08:23.283Z,35.72
2022-12-22T17:10:51.679Z,38.13
2022-12-22T17:13:20.759Z,38.35
2022-12-22T17:15:48.775Z,36.17
2022-12-22T17:18:18.346Z,46.03
2022-12-22T17:20:47.970Z,42.50
2022-12-22T17:23:32.788Z,41.97
2022-12-22T17:26:04.571Z,38.10
2022-12-22T17:28:33.531Z,34.88
2022-12-22T17:31:01.597Z,31.35
2022-12-22T17:33:29.589Z,33.63
2022-12-22T17:35:58.497Z,30.90
2022-12-22T17:38:28.935Z,30.58
2022-12-22T17:40:57.593Z,29.95
2022-12-22T17:43:25.732Z,27.48
2022-12-22T17:45:54.057Z,29.17
2022-12-22T17:48:22.059Z,25.58
2022-12-22T17:50:50.253Z,25.27
2022-12-22T17:53:21.304Z,22.08
2022-12-22T17:56:08.959Z,20.92
2022-12-22T17:58:37.585Z,23.42
2022-12-22T18:01:05.678Z,22.55
2022-12-22T18:03:33.983Z,26.25
2022-12-22T18:06:01.967Z,23.85
2022-12-22T18:08:29.944Z,27.67
2022-12-22T18:10:59.699Z,21.10
2022-12-22T18:13:27.676Z,22.42
2022-12-22T18:15:56.036Z,21.90
2022-12-22T18:18:24.258Z,23.30
2022-12-22T18:21:06.951Z,24.83
2022-12-22T18:23:37.040Z,23.58
2022-12-22T18:26:08.489Z,25.08
2022-12-22T18:28:36.845Z,25.90
2022-12-22T18:31:04.904Z,22.20
2022-12-22T18:33:32.898Z,29.08
2022-12-22T18:36:02.173Z,23.58
2022-12-22T18:38:33.265Z,23.08
2022-12-22T18:41:01.491Z,24.67
2022-12-22T18:43:30.718Z,25.75
2022-12-22T18:45:58.613Z,23.35
2022-12-22T18:48:26.586Z,21.98
2022-12-22T18:50:54.487Z,23.38
2022-12-22T18:53:28.605Z,27.88
2022-12-22T18:58:25.711Z,22.52
2022-12-22T19:00:57.037Z,24.25
2022-12-22T19:03:29.292Z,24.08
2022-12-22T19:05:58.096Z,23.23
2022-12-22T19:08:28.052Z,23.98
2022-12-22T19:10:57.654Z,24.15
2022-12-22T19:13:29.481Z,22.63
2022-12-22T19:15:59.490Z,22.40
2022-12-22T19:18:29.017Z,25.20
2022-12-22T19:20:57.442Z,25.42
2022-12-22T19:23:27.071Z,25.55
2022-12-22T19:26:01.659Z,26.15
2022-12-22T19:28:34.447Z,25.30
2022-12-22T19:31:04.614Z,26.25
2022-12-22T19:33:37.476Z,25.20
2022-12-22T19:36:06.364Z,24.45
2022-12-22T19:38:35.791Z,24.58
2022-12-22T19:41:05.622Z,24.25
2022-12-22T19:43:34.344Z,25.27
2022-12-22T19:46:05.156Z,22.75
2022-12-22T19:48:33.169Z,28.17
2022-12-22T19:51:01.086Z,28.52
2022-12-22T19:53:29.064Z,26.80
2022-12-22T19:55:57.975Z,27.38
2022-12-22T19:58:30.981Z,27.45
2022-12-22T20:00:59.017Z,31.50
2022-12-22T20:03:28.609Z,26.85
2022-12-22T20:05:56.556Z,29.08
2022-12-22T20:08:24.436Z,30.75
2022-12-22T20:10:58.421Z,30.70
2022-12-22T20:13:30.926Z,35.58
2022-12-22T20:15:59.339Z,27.33
2022-12-22T20:18:30.427Z,33.20
2022-12-22T20:21:02.965Z,29.02
2022-12-22T20:23:35.055Z,40.85
2022-12-22T20:26:06.014Z,38.03
2022-12-22T20:28:36.978Z,32.53
2022-12-22T20:31:06.453Z,29.30
2022-12-22T20:33:36.159Z,27.58
2022-12-22T20:36:05.784Z,26.45
2022-12-22T20:38:35.623Z,23.10
2022-12-22T20:41:05.416Z,25.13
2022-12-22T20:43:34.716Z,28.05
2022-12-22T20:46:05.090Z,22.95
2022-12-22T20:48:36.486Z,21.55
2022-12-22T20:51:06.272Z,26.13
2022-12-22T20:53:34.476Z,29.92
2022-12-22T20:56:03.613Z,22.75
2022-12-22T20:58:36.118Z,23.80
2022-12-22T21:01:04.568Z,22.70
2022-12-22T21:03:32.638Z,29.77
2022-12-22T21:06:02.058Z,24.88
2022-12-22T21:08:29.954Z,25.00
2022-12-22T21:10:57.970Z,26.42
2022-12-22T21:13:25.954Z,26.40
2022-12-22T21:15:54.134Z,29.95
2022-12-22T21:18:24.352Z,25.55
2022-12-22T21:20:53.074Z,27.13
2022-12-22T21:23:22.367Z,19.25
2022-12-22T21:25:52.371Z,28.65
2022-12-22T21:28:28.266Z,20.35
2022-12-22T21:30:56.230Z,20.10
2022-12-22T21:33:24.306Z,20.75
2022-12-22T21:35:53.673Z,21.60
2022-12-22T21:38:25.354Z,19.42
2022-12-22T21:40:53.426Z,16.85
2022-12-22T21:43:21.400Z,22.48
2022-12-22T21:45:50.534Z,14.90
2022-12-22T21:48:21.077Z,15.68
2022-12-22T21:50:50.670Z,19.67
2022-12-22T21:53:22.477Z,14.15
2022-12-22T21:55:52.114Z,13.48
2022-12-22T21:58:20.090Z,11.60
2022-12-22T22:00:50.100Z,14.93
2022-12-22T22:03:18.573Z,18.58
2022-12-22T22:05:48.007Z,22.08
2022-12-22T22:08:15.951Z,20.90
2022-12-22T22:10:44.976Z,19.77
2022-12-22T22:13:16.839Z,17.90
2022-12-22T22:15:44.808Z,19.25
2022-12-22T22:18:17.355Z,16.80
2022-12-22T22:20:45.824Z,19.80
2022-12-22T22:23:15.313Z,17.55
2022-12-22T22:25:43.229Z,21.35
2022-12-22T22:28:12.154Z,20.35
2022-12-22T22:30:43.064Z,19.70
2022-12-22T22:33:11.992Z,18.20
2022-12-22T22:35:42.384Z,16.92
2022-12-22T22:38:12.513Z,22.85
2022-12-22T22:40:43.327Z,19.02
2022-12-22T22:43:11.425Z,18.15
2022-12-22T22:45:40.546Z,21.08
2022-12-22T22:48:18.094Z,21.77
2022-12-22T22:50:46.289Z,22.40
2022-12-22T22:53:14.217Z,22.38
2022-12-22T22:55:42.139Z,18.35
2022-12-22T22:58:11.462Z,28.23
2022-12-22T23:00:39.604Z,18.27
2022-12-22T23:03:09.106Z,31.95
2022-12-22T23:05:37.088Z,26.60
2022-12-22T23:08:05.347Z,28.85
2022-12-22T23:10:37.861Z,28.50
2022-12-22T23:13:09.443Z,33.70
2022-12-22T23:15:37.316Z,24.42
2022-12-22T23:18:05.332Z,34.22
2022-12-22T23:20:34.567Z,30.88
2022-12-22T23:23:02.456Z,30.63
2022-12-22T23:25:30.343Z,31.27
2022-12-22T23:27:58.293Z,29.23
2022-12-22T23:30:26.181Z,36.35
2022-12-22T23:32:54.125Z,31.45
2022-12-22T23:35:22.010Z,32.15
2022-12-22T23:37:51.488Z,26.00
2022-12-22T23:40:50.916Z,25.70
2022-12-22T23:43:08.778Z,33.40
2022-12-22T23:45:36.740Z,28.98
2022-12-22T23:48:05.537Z,28.42
2022-12-22T23:50:33.732Z,29.77
2022-12-22T23:53:03.465Z,27.65
2022-12-22T23:55:31.490Z,26.83
2022-12-22T23:57:59.462Z,30.67
